Flight Track Log - Related Links

Times and Time Zones

All times are in EDT time to prevent confusion due to time zone crossing. See the FLG3729 flight status page for this flight to view local times or setup timezone preferences in your user account.


Time Position Orientation Groundspeed Altitude Reporting Facility
EDT Latitude Longitude Course Direction KTS MPH feet Rate Location/Type
Tue 06:15:23 AM 42.7256 -73.8053 199° South 135 155 1,400  Level Boston Center
Tue 06:16:41 AM 42.6692 -73.8322 199° South 224 258 3,500 1,947 Climbing Boston Center
Tue 06:17:54 AM 42.6931 -73.9089 293° West 234 269 6,300 2,571 Climbing Boston Center
Tue 06:18:54 AM 42.7044 -73.9911 281° West 228 262 9,200 2,777 Climbing Boston Center
Tue 06:19:55 AM 42.7347 -74.0656 299° West 228 262 11,900 2,628 Climbing Boston Center
Tue 06:20:55 AM 42.7756 -74.1344 309° West 230 265 14,500 2,339 Climbing Boston Center
Tue 06:21:53 AM 42.8158 -74.2175 303° West 249 287 16,500 1,744 Climbing Boston Center
Tue 06:22:52 AM 42.8542 -74.3008 302° West 255 293 17,900 1,500 Climbing Boston Center
Tue 06:23:53 AM 42.8944 -74.3814 304° West 268 308 19,500 1,636 Climbing Boston Center
Tue 06:24:53 AM 42.9453 -74.4625 311° West 273 314 21,200 1,240 Climbing Boston Center
Tue 06:25:54 AM 42.9894 -74.5547 303° West 279 321 22,000 655 Climbing Boston Center
Tue 06:26:52 AM 43.0186 -74.6667 290° West 294 338 22,500 504 Climbing Boston Center
Tue 06:27:53 AM 43.0325 -74.7919 279° West 317 365 23,000 500 Climbing Boston Center
Tue 06:28:52 AM 43.0464 -74.9261 278° West 343 395 23,500 590 Climbing Boston Center
Tue 06:29:55 AM 43.0600 -75.0658 278° West 361 415 24,200 600 Climbing Boston Center
Tue 06:30:52 AM 43.0714 -75.2056 276° West 373 429 24,700 513 Climbing Boston Center
Tue 06:31:52 AM 43.0864 -75.3514 278° West 378 435 25,200 744 Climbing Boston Center
Tue 06:32:53 AM 43.0992 -75.4972 277° West 389 448 26,200 1,050 Climbing Boston Center
Tue 06:33:52 AM 43.1119 -75.6400 277° West 389 448 27,300 900 Climbing Boston Center
Tue 06:34:53 AM 43.1247 -75.7831 277° West 389 448 28,000 341 Climbing Boston Center
Tue 06:35:55 AM 43.1392 -75.9261 278° West 389 448 28,000  Level Boston Center
Tue 06:36:52 AM 43.1511 -76.0775 276° West 394 453 28,000  Level Boston Center
Tue 06:39:21 AM 43.1431 -76.4542 268° West 394 453 28,000  Level Cleveland Center
Tue 06:40:21 AM 43.1297 -76.6089 263° West 404 465 28,000  Level Cleveland Center
Tue 06:41:21 AM 43.1142 -76.7606 262° West 409 471 28,000  Level Cleveland Center
Tue 06:42:21 AM 43.0961 -76.9181 261° West 415 478 28,000  Level Cleveland Center
Tue 06:43:21 AM 43.0800 -77.0697 262° West 415 478 28,000  Level Cleveland Center
Tue 06:44:21 AM 43.0658 -77.2242 263° West 410 472 28,000  Level Cleveland Center
Tue 06:45:21 AM 43.0492 -77.3728 261° West 410 472 28,000  Level Cleveland Center
Tue 06:46:21 AM 43.0325 -77.5242 261° West 410 472 28,000  Level Cleveland Center
Tue 06:47:21 AM 43.0156 -77.6756 261° West 410 472 28,000  Level Cleveland Center
Tue 06:48:21 AM 42.9983 -77.8267 261° West 410 472 28,000  Level Cleveland Center
Tue 06:49:21 AM 42.9811 -77.9781 261° West 410 472 28,000  Level Cleveland Center
Tue 06:50:21 AM 42.9619 -78.1461 261° West 410 472 28,000  Level Cleveland Center
Tue 06:51:21 AM 42.9442 -78.2972 261° West 410 472 28,000  Level Cleveland Center
Tue 06:52:21 AM 42.9283 -78.4481 262° West 410 472 28,000  Level Cleveland Center
Tue 06:53:21 AM 42.9078 -78.5961 259° West 410 472 28,000  Level Cleveland Center
Tue 06:54:21 AM 42.8917 -78.7497 262° West 410 472 28,000  Level Cleveland Center
Tue 06:55:21 AM 42.8711 -78.9006 260° West 410 472 28,000  Level Cleveland Center
Tue 06:56:21 AM 42.8544 -79.0511 261° West 410 472 28,000  Level Cleveland Center
Tue 06:57:21 AM 42.8356 -79.2017 260° West 410 472 28,000  Level Cleveland Center
Tue 06:58:21 AM 42.8164 -79.3547 260° West 410 472 28,000  Level Cleveland Center
Tue 06:59:21 AM 42.7992 -79.5022 261° West 410 472 28,000  Level Cleveland Center
Tue 07:00:21 AM 42.7794 -79.6525 260° West 410 472 28,000  Level Cleveland Center
Tue 07:01:21 AM 42.7619 -79.8000 261° West 410 472 28,000  Level Cleveland Center
Tue 07:02:21 AM 42.7503 -79.9528 264° West 410 472 28,000  Level Cleveland Center
Tue 07:03:21 AM 42.7406 -80.0914 265° West 410 472 28,000  Level Cleveland Center
Tue 07:04:21 AM 42.7347 -80.2467 267° West 404 465 28,000  Level Cleveland Center
Tue 07:05:21 AM 42.7289 -80.3994 267° West 410 472 28,000  Level Cleveland Center
Tue 07:06:21 AM 42.7208 -80.5492 266° West 404 465 28,000  Level Cleveland Center
Tue 07:07:21 AM 42.7144 -80.6989 267° West 404 465 28,000  Level Cleveland Center
Tue 07:08:21 AM 42.7078 -80.8544 267° West 410 472 28,000  Level Cleveland Center
Tue 07:09:21 AM 42.6928 -81.0211 263° West 410 472 28,000  Level Cleveland Center
Tue 07:10:21 AM 42.6756 -81.1678 261° West 402 463 28,000  Level Cleveland Center
Tue 07:11:21 AM 42.6581 -81.3172 261° West 402 463 28,000  Level Cleveland Center
Tue 07:12:21 AM 42.6403 -81.4667 261° West 408 470 28,000 -1,100 Level Cleveland Center
Tue 07:13:21 AM 42.6203 -81.6158 260° West 408 470 25,800 -2,250 Descending Cleveland Center
Tue 07:14:21 AM 42.6042 -81.7708 262° West 413 475 23,500 -2,200 Descending Cleveland Center
Tue 07:15:21 AM 42.5861 -81.9000 259° West 413 475 21,400 -2,150 Descending Cleveland Center
Tue 07:16:21 AM 42.5678 -82.0406 260° West 401 461 19,200 -2,100 Descending Cleveland Center
Tue 07:17:21 AM 42.5533 -82.1842 262° West 396 456 17,200 -2,000 Descending Cleveland Center
Tue 07:18:21 AM 42.5344 -82.3244 260° West 390 449 15,200 -2,000 Descending Cleveland Center
Tue 07:19:21 AM 42.5156 -82.4650 260° West 390 449 13,200 -2,067 Descending Cleveland Center
Tue 07:19:51 AM 42.5058 -82.5461 261° West 365 420 12,100 -1,200 Descending Cleveland Center
Tue 07:20:21 AM 42.4886 -82.5936 244° Southwest 383 441 12,000 -90 Descending Cleveland Center
Tue 07:20:58 AM 42.4578 -82.6856 246° West 363 418 12,000  Level Cleveland Center
Tue 07:21:59 AM 42.4158 -82.8050 245° Southwest 351 404 12,000  Level Cleveland Center
Tue 07:23:00 AM 42.3825 -82.9022 245° Southwest 259 298 12,000  Level Cleveland Center
Tue 07:24:01 AM 42.3494 -82.9936 244° Southwest 267 307 12,000  Level Cleveland Center
Tue 07:25:02 AM 42.3183 -83.0797 244° Southwest 242 278 12,000  Level Cleveland Center
Tue 07:26:02 AM 42.2878 -83.1514 240° Southwest 225 259 12,000 -609 Level Cleveland Center
Tue 07:27:10 AM 42.2200 -83.1936 205° Southwest 233 268 10,700 -1,349 Descending Cleveland Center
Tue 07:28:11 AM 42.1625 -83.2417 212° Southwest 244 281 9,100 -1,512 Descending Cleveland Center
Tue 07:29:17 AM 42.0931 -83.2806 203° Southwest 239 275 7,500 -1,388 Descending Cleveland Center
Tue 07:30:12 AM 42.0381 -83.3119 203° Southwest 239 275 6,300 -1,327 Descending Cleveland Center
Tue 07:31:01 AM 41.9872 -83.3406 203° Southwest 233 268 5,200 -1,190 Descending Cleveland Center
Tue 07:32:08 AM 41.9217 -83.3794 204° Southwest 236 272 4,000 -563 Descending Cleveland Center
Tue 07:33:09 AM 41.8931 -83.4453 240° Southwest 207 238 4,000  Level Cleveland Center
Tue 07:34:10 AM 41.8972 -83.5264 274° West 218 251 4,000  Level Cleveland Center
Tue 07:35:11 AM 41.9447 -83.5369 351° North 216 249 4,000  Level Cleveland Center
Tue 07:36:11 AM 42.0022 -83.4975 27° Northeast 219 252 4,000 -50 Level Cleveland Center
Tue 07:37:12 AM 42.0531 -83.4581 30° Northeast 220 253 3,900 -689 Descending Cleveland Center
Tue 07:38:13 AM 42.1106 -83.4158 29° Northeast 205 236 2,600 -1,033 Descending Cleveland Center
Tue 07:39:14 AM 42.1486 -83.3894 27° Northeast 123 142 1,800 -738 Descending Cleveland Center
Tue 07:40:15 AM 42.1783 -83.3656 31° Northeast 129 148 1,100 -689 Descending Cleveland Center

Login

Don't have an account? Register now (free) for customized features, flight alerts, and more!